sensor_id;sensor_type;location;lat;lon;timestamp;P1;durP1;ratioP1;P2;durP2;ratioP2
10491;SDS011;5293;51.464;-2.566;2024-03-06T00:01:31;23.60;;;11.37;;
10491;SDS011;5293;51.464;-2.566;2024-03-06T00:03:57;31.97;;;11.37;;
10491;SDS011;5293;51.464;-2.566;2024-03-06T00:06:23;25.90;;;11.17;;
10491;SDS011;5293;51.464;-2.566;2024-03-06T00:08:49;22.83;;;11.20;;
10491;SDS011;5293;51.464;-2.566;2024-03-06T00:11:15;31.17;;;12.60;;
10491;SDS011;5293;51.464;-2.566;2024-03-06T00:13:41;24.83;;;12.10;;
10491;SDS011;5293;51.464;-2.566;2024-03-06T00:16:06;24.30;;;11.37;;
10491;SDS011;5293;51.464;-2.566;2024-03-06T00:18:32;22.53;;;10.07;;
10491;SDS011;5293;51.464;-2.566;2024-03-06T00:20:58;21.50;;;9.37;;
10491;SDS011;5293;51.464;-2.566;2024-03-06T00:23:24;19.47;;;7.60;;
10491;SDS011;5293;51.464;-2.566;2024-03-06T00:25:49;17.43;;;7.60;;
10491;SDS011;5293;51.464;-2.566;2024-03-06T00:28:15;22.20;;;10.57;;
10491;SDS011;5293;51.464;-2.566;2024-03-06T00:30:41;22.37;;;10.03;;
10491;SDS011;5293;51.464;-2.566;2024-03-06T00:33:07;23.20;;;11.00;;
10491;SDS011;5293;51.464;-2.566;2024-03-06T00:35:33;22.57;;;10.63;;
10491;SDS011;5293;51.464;-2.566;2024-03-06T00:37:58;23.23;;;11.17;;
10491;SDS011;5293;51.464;-2.566;2024-03-06T00:40:27;23.50;;;10.97;;
10491;SDS011;5293;51.464;-2.566;2024-03-06T00:42:56;21.70;;;11.63;;
10491;SDS011;5293;51.464;-2.566;2024-03-06T00:45:22;31.83;;;11.30;;
10491;SDS011;5293;51.464;-2.566;2024-03-06T00:47:48;17.87;;;10.63;;
10491;SDS011;5293;51.464;-2.566;2024-03-06T00:50:13;22.20;;;9.97;;
10491;SDS011;5293;51.464;-2.566;2024-03-06T00:52:41;20.17;;;9.70;;
10491;SDS011;5293;51.464;-2.566;2024-03-06T00:55:08;25.77;;;10.67;;
10491;SDS011;5293;51.464;-2.566;2024-03-06T00:57:35;18.73;;;10.17;;
10491;SDS011;5293;51.464;-2.566;2024-03-06T01:00:01;20.80;;;11.07;;
10491;SDS011;5293;51.464;-2.566;2024-03-06T01:02:31;17.97;;;9.67;;
10491;SDS011;5293;51.464;-2.566;2024-03-06T01:04:56;21.87;;;9.33;;
10491;SDS011;5293;51.464;-2.566;2024-03-06T01:07:22;20.83;;;9.67;;
10491;SDS011;5293;51.464;-2.566;2024-03-06T01:09:48;20.77;;;9.90;;
10491;SDS011;5293;51.464;-2.566;2024-03-06T01:12:13;21.13;;;10.70;;
10491;SDS011;5293;51.464;-2.566;2024-03-06T01:14:39;22.93;;;10.83;;
10491;SDS011;5293;51.464;-2.566;2024-03-06T01:17:05;21.87;;;10.23;;
10491;SDS011;5293;51.464;-2.566;2024-03-06T01:19:31;20.83;;;10.03;;
10491;SDS011;5293;51.464;-2.566;2024-03-06T01:21:56;21.40;;;9.57;;
10491;SDS011;5293;51.464;-2.566;2024-03-06T01:24:22;21.57;;;10.20;;
10491;SDS011;5293;51.464;-2.566;2024-03-06T01:26:48;20.60;;;9.70;;
10491;SDS011;5293;51.464;-2.566;2024-03-06T01:29:13;18.83;;;8.37;;
10491;SDS011;5293;51.464;-2.566;2024-03-06T01:31:39;24.10;;;9.20;;
10491;SDS011;5293;51.464;-2.566;2024-03-06T01:34:04;18.33;;;9.47;;
10491;SDS011;5293;51.464;-2.566;2024-03-06T01:36:30;22.33;;;9.67;;
10491;SDS011;5293;51.464;-2.566;2024-03-06T01:38:56;19.00;;;9.10;;
10491;SDS011;5293;51.464;-2.566;2024-03-06T01:41:21;27.73;;;9.27;;
10491;SDS011;5293;51.464;-2.566;2024-03-06T01:43:47;19.40;;;7.77;;
10491;SDS011;5293;51.464;-2.566;2024-03-06T01:46:13;20.27;;;7.00;;
10491;SDS011;5293;51.464;-2.566;2024-03-06T01:48:38;21.70;;;7.77;;
10491;SDS011;5293;51.464;-2.566;2024-03-06T01:51:04;19.77;;;7.50;;
10491;SDS011;5293;51.464;-2.566;2024-03-06T01:53:33;21.67;;;7.60;;
10491;SDS011;5293;51.464;-2.566;2024-03-06T01:56:01;21.90;;;7.63;;
10491;SDS011;5293;51.464;-2.566;2024-03-06T01:58:29;21.37;;;7.63;;
10491;SDS011;5293;51.464;-2.566;2024-03-06T02:00:55;16.13;;;7.33;;
10491;SDS011;5293;51.464;-2.566;2024-03-06T02:03:23;21.57;;;8.43;;
10491;SDS011;5293;51.464;-2.566;2024-03-06T02:05:52;24.00;;;9.20;;
10491;SDS011;5293;51.464;-2.566;2024-03-06T02:08:18;20.30;;;9.27;;
10491;SDS011;5293;51.464;-2.566;2024-03-06T02:10:44;21.00;;;10.00;;
10491;SDS011;5293;51.464;-2.566;2024-03-06T02:13:11;23.70;;;9.40;;
10491;SDS011;5293;51.464;-2.566;2024-03-06T02:15:37;27.13;;;10.37;;
10491;SDS011;5293;51.464;-2.566;2024-03-06T02:18:06;20.33;;;10.33;;
10491;SDS011;5293;51.464;-2.566;2024-03-06T02:20:33;24.37;;;10.30;;
10491;SDS011;5293;51.464;-2.566;2024-03-06T02:22:59;22.27;;;10.37;;
10491;SDS011;5293;51.464;-2.566;2024-03-06T02:25:25;23.53;;;9.37;;
10491;SDS011;5293;51.464;-2.566;2024-03-06T02:27:51;22.60;;;9.80;;
10491;SDS011;5293;51.464;-2.566;2024-03-06T02:30:19;23.33;;;10.03;;
10491;SDS011;5293;51.464;-2.566;2024-03-06T02:32:45;21.57;;;9.50;;
10491;SDS011;5293;51.464;-2.566;2024-03-06T02:35:11;21.43;;;9.00;;
10491;SDS011;5293;51.464;-2.566;2024-03-06T02:37:38;20.63;;;9.90;;
10491;SDS011;5293;51.464;-2.566;2024-03-06T02:40:06;16.57;;;8.90;;
10491;SDS011;5293;51.464;-2.566;2024-03-06T02:42:32;18.70;;;8.93;;
10491;SDS011;5293;51.464;-2.566;2024-03-06T02:44:58;22.23;;;9.30;;
10491;SDS011;5293;51.464;-2.566;2024-03-06T02:47:23;20.73;;;8.40;;
10491;SDS011;5293;51.464;-2.566;2024-03-06T02:49:49;17.50;;;8.90;;
10491;SDS011;5293;51.464;-2.566;2024-03-06T02:52:15;20.03;;;9.20;;
10491;SDS011;5293;51.464;-2.566;2024-03-06T02:54:41;22.13;;;9.30;;
10491;SDS011;5293;51.464;-2.566;2024-03-06T02:57:07;19.00;;;8.93;;
10491;SDS011;5293;51.464;-2.566;2024-03-06T02:59:33;25.23;;;9.60;;
10491;SDS011;5293;51.464;-2.566;2024-03-06T03:01:58;23.03;;;9.40;;
10491;SDS011;5293;51.464;-2.566;2024-03-06T03:04:25;21.53;;;8.83;;
10491;SDS011;5293;51.464;-2.566;2024-03-06T03:06:51;21.97;;;9.27;;
10491;SDS011;5293;51.464;-2.566;2024-03-06T03:09:17;24.03;;;9.67;;
10491;SDS011;5293;51.464;-2.566;2024-03-06T03:11:43;19.37;;;8.53;;
10491;SDS011;5293;51.464;-2.566;2024-03-06T03:14:11;21.30;;;9.00;;
10491;SDS011;5293;51.464;-2.566;2024-03-06T03:16:37;17.67;;;9.20;;
10491;SDS011;5293;51.464;-2.566;2024-03-06T03:19:02;17.53;;;8.57;;
10491;SDS011;5293;51.464;-2.566;2024-03-06T03:21:28;21.43;;;9.17;;
10491;SDS011;5293;51.464;-2.566;2024-03-06T03:23:54;21.30;;;8.97;;
10491;SDS011;5293;51.464;-2.566;2024-03-06T03:26:19;17.17;;;8.03;;
10491;SDS011;5293;51.464;-2.566;2024-03-06T03:28:45;15.70;;;7.67;;
10491;SDS011;5293;51.464;-2.566;2024-03-06T03:31:11;15.33;;;7.23;;
10491;SDS011;5293;51.464;-2.566;2024-03-06T03:33:39;22.17;;;8.10;;
10491;SDS011;5293;51.464;-2.566;2024-03-06T03:36:06;22.40;;;7.03;;
10491;SDS011;5293;51.464;-2.566;2024-03-06T03:38:32;19.17;;;7.10;;
10491;SDS011;5293;51.464;-2.566;2024-03-06T03:41:01;17.87;;;6.33;;
10491;SDS011;5293;51.464;-2.566;2024-03-06T03:43:29;19.63;;;7.03;;
10491;SDS011;5293;51.464;-2.566;2024-03-06T03:45:55;21.17;;;6.67;;
10491;SDS011;5293;51.464;-2.566;2024-03-06T03:48:21;20.93;;;6.43;;
10491;SDS011;5293;51.464;-2.566;2024-03-06T03:50:46;12.80;;;6.23;;
10491;SDS011;5293;51.464;-2.566;2024-03-06T03:53:12;24.03;;;6.60;;
10491;SDS011;5293;51.464;-2.566;2024-03-06T03:55:37;14.70;;;6.50;;
10491;SDS011;5293;51.464;-2.566;2024-03-06T03:58:03;18.47;;;6.53;;
10491;SDS011;5293;51.464;-2.566;2024-03-06T04:00:30;15.03;;;7.13;;
10491;SDS011;5293;51.464;-2.566;2024-03-06T04:02:56;19.03;;;7.47;;
10491;SDS011;5293;51.464;-2.566;2024-03-06T04:05:22;19.90;;;7.30;;
10491;SDS011;5293;51.464;-2.566;2024-03-06T04:07:48;19.03;;;6.90;;
10491;SDS011;5293;51.464;-2.566;2024-03-06T04:10:14;17.93;;;6.67;;
10491;SDS011;5293;51.464;-2.566;2024-03-06T04:12:39;16.03;;;6.47;;
10491;SDS011;5293;51.464;-2.566;2024-03-06T04:15:05;17.50;;;6.97;;
10491;SDS011;5293;51.464;-2.566;2024-03-06T04:17:31;13.93;;;6.50;;
10491;SDS011;5293;51.464;-2.566;2024-03-06T04:19:57;16.60;;;6.97;;
10491;SDS011;5293;51.464;-2.566;2024-03-06T04:22:22;25.20;;;6.97;;
10491;SDS011;5293;51.464;-2.566;2024-03-06T04:24:48;23.10;;;7.37;;
10491;SDS011;5293;51.464;-2.566;2024-03-06T04:27:14;14.07;;;6.80;;
10491;SDS011;5293;51.464;-2.566;2024-03-06T04:29:41;19.63;;;7.90;;
10491;SDS011;5293;51.464;-2.566;2024-03-06T04:32:07;13.60;;;6.50;;
10491;SDS011;5293;51.464;-2.566;2024-03-06T04:34:32;20.37;;;7.60;;
10491;SDS011;5293;51.464;-2.566;2024-03-06T04:36:58;14.13;;;6.90;;
10491;SDS011;5293;51.464;-2.566;2024-03-06T04:39:23;13.93;;;6.60;;
10491;SDS011;5293;51.464;-2.566;2024-03-06T04:41:49;15.67;;;7.70;;
10491;SDS011;5293;51.464;-2.566;2024-03-06T04:44:15;20.63;;;7.43;;
10491;SDS011;5293;51.464;-2.566;2024-03-06T04:46:40;18.20;;;7.53;;
10491;SDS011;5293;51.464;-2.566;2024-03-06T04:49:06;17.23;;;7.50;;
10491;SDS011;5293;51.464;-2.566;2024-03-06T04:51:31;21.17;;;7.23;;
10491;SDS011;5293;51.464;-2.566;2024-03-06T04:53:57;19.00;;;8.33;;
10491;SDS011;5293;51.464;-2.566;2024-03-06T04:56:23;22.60;;;8.03;;
10491;SDS011;5293;51.464;-2.566;2024-03-06T04:58:48;20.07;;;8.33;;
10491;SDS011;5293;51.464;-2.566;2024-03-06T05:01:14;24.70;;;8.73;;
10491;SDS011;5293;51.464;-2.566;2024-03-06T05:03:39;15.53;;;8.17;;
10491;SDS011;5293;51.464;-2.566;2024-03-06T05:06:05;18.67;;;7.87;;
10491;SDS011;5293;51.464;-2.566;2024-03-06T05:08:31;22.20;;;7.73;;
10491;SDS011;5293;51.464;-2.566;2024-03-06T05:10:59;20.60;;;7.63;;
10491;SDS011;5293;51.464;-2.566;2024-03-06T05:13:26;17.73;;;7.80;;
10491;SDS011;5293;51.464;-2.566;2024-03-06T05:15:52;14.97;;;8.27;;
10491;SDS011;5293;51.464;-2.566;2024-03-06T05:18:19;21.70;;;8.40;;
10491;SDS011;5293;51.464;-2.566;2024-03-06T05:20:45;16.93;;;7.37;;
10491;SDS011;5293;51.464;-2.566;2024-03-06T05:23:11;23.00;;;8.27;;
10491;SDS011;5293;51.464;-2.566;2024-03-06T05:25:37;18.23;;;7.60;;
10491;SDS011;5293;51.464;-2.566;2024-03-06T05:28:03;19.23;;;8.23;;
10491;SDS011;5293;51.464;-2.566;2024-03-06T05:30:29;20.73;;;9.63;;
10491;SDS011;5293;51.464;-2.566;2024-03-06T05:32:55;20.43;;;9.20;;
10491;SDS011;5293;51.464;-2.566;2024-03-06T05:35:21;18.50;;;8.60;;
10491;SDS011;5293;51.464;-2.566;2024-03-06T05:37:47;21.27;;;8.60;;
10491;SDS011;5293;51.464;-2.566;2024-03-06T05:40:12;19.47;;;8.33;;
10491;SDS011;5293;51.464;-2.566;2024-03-06T05:42:38;21.53;;;9.00;;
10491;SDS011;5293;51.464;-2.566;2024-03-06T05:45:04;18.00;;;8.60;;
10491;SDS011;5293;51.464;-2.566;2024-03-06T05:47:35;20.37;;;8.87;;
10491;SDS011;5293;51.464;-2.566;2024-03-06T05:50:01;20.60;;;8.87;;
10491;SDS011;5293;51.464;-2.566;2024-03-06T05:52:30;21.13;;;9.00;;
10491;SDS011;5293;51.464;-2.566;2024-03-06T05:54:56;24.20;;;9.67;;
10491;SDS011;5293;51.464;-2.566;2024-03-06T05:57:22;19.90;;;9.07;;
10491;SDS011;5293;51.464;-2.566;2024-03-06T05:59:48;17.77;;;8.10;;
10491;SDS011;5293;51.464;-2.566;2024-03-06T06:02:15;18.50;;;8.97;;
10491;SDS011;5293;51.464;-2.566;2024-03-06T06:04:44;20.50;;;8.87;;
10491;SDS011;5293;51.464;-2.566;2024-03-06T06:07:10;16.97;;;8.30;;
10491;SDS011;5293;51.464;-2.566;2024-03-06T06:09:36;19.13;;;9.37;;
10491;SDS011;5293;51.464;-2.566;2024-03-06T06:12:02;17.17;;;8.73;;
10491;SDS011;5293;51.464;-2.566;2024-03-06T06:14:27;25.43;;;9.07;;
10491;SDS011;5293;51.464;-2.566;2024-03-06T06:16:54;20.07;;;9.07;;
10491;SDS011;5293;51.464;-2.566;2024-03-06T06:19:21;17.27;;;8.57;;
10491;SDS011;5293;51.464;-2.566;2024-03-06T06:21:46;17.67;;;7.77;;
10491;SDS011;5293;51.464;-2.566;2024-03-06T06:24:13;18.43;;;7.80;;
10491;SDS011;5293;51.464;-2.566;2024-03-06T06:26:38;13.73;;;7.07;;
10491;SDS011;5293;51.464;-2.566;2024-03-06T06:29:04;17.17;;;7.17;;
10491;SDS011;5293;51.464;-2.566;2024-03-06T06:31:30;23.30;;;7.63;;
10491;SDS011;5293;51.464;-2.566;2024-03-06T06:33:56;16.30;;;8.00;;
10491;SDS011;5293;51.464;-2.566;2024-03-06T06:36:22;17.43;;;7.47;;
10491;SDS011;5293;51.464;-2.566;2024-03-06T06:38:48;13.93;;;7.37;;
10491;SDS011;5293;51.464;-2.566;2024-03-06T06:41:14;13.13;;;7.23;;
10491;SDS011;5293;51.464;-2.566;2024-03-06T06:43:42;15.40;;;7.67;;
10491;SDS011;5293;51.464;-2.566;2024-03-06T06:46:07;13.30;;;7.37;;
10491;SDS011;5293;51.464;-2.566;2024-03-06T06:48:33;14.43;;;7.13;;
10491;SDS011;5293;51.464;-2.566;2024-03-06T06:51:00;13.37;;;7.43;;
10491;SDS011;5293;51.464;-2.566;2024-03-06T06:53:29;15.30;;;7.30;;
10491;SDS011;5293;51.464;-2.566;2024-03-06T06:55:55;14.13;;;7.40;;
10491;SDS011;5293;51.464;-2.566;2024-03-06T06:58:20;14.83;;;7.67;;
10491;SDS011;5293;51.464;-2.566;2024-03-06T07:00:46;12.93;;;6.70;;
10491;SDS011;5293;51.464;-2.566;2024-03-06T07:03:12;16.00;;;6.97;;
10491;SDS011;5293;51.464;-2.566;2024-03-06T07:05:37;13.13;;;7.10;;
10491;SDS011;5293;51.464;-2.566;2024-03-06T07:08:03;13.80;;;6.70;;
10491;SDS011;5293;51.464;-2.566;2024-03-06T07:10:30;16.70;;;6.37;;
10491;SDS011;5293;51.464;-2.566;2024-03-06T07:12:55;12.53;;;5.97;;
10491;SDS011;5293;51.464;-2.566;2024-03-06T07:15:21;10.30;;;5.67;;
10491;SDS011;5293;51.464;-2.566;2024-03-06T07:17:47;9.40;;;5.47;;
10491;SDS011;5293;51.464;-2.566;2024-03-06T07:20:13;11.33;;;5.20;;
10491;SDS011;5293;51.464;-2.566;2024-03-06T07:22:39;9.43;;;5.87;;
10491;SDS011;5293;51.464;-2.566;2024-03-06T07:25:05;7.97;;;5.07;;
10491;SDS011;5293;51.464;-2.566;2024-03-06T07:27:31;7.53;;;5.30;;
10491;SDS011;5293;51.464;-2.566;2024-03-06T07:29:57;9.90;;;5.53;;
10491;SDS011;5293;51.464;-2.566;2024-03-06T07:32:22;9.80;;;5.73;;
10491;SDS011;5293;51.464;-2.566;2024-03-06T07:34:48;9.20;;;6.00;;
10491;SDS011;5293;51.464;-2.566;2024-03-06T07:37:13;11.20;;;5.20;;
10491;SDS011;5293;51.464;-2.566;2024-03-06T07:39:40;9.40;;;5.23;;
10491;SDS011;5293;51.464;-2.566;2024-03-06T07:42:05;9.80;;;5.63;;
10491;SDS011;5293;51.464;-2.566;2024-03-06T07:44:31;7.63;;;5.33;;
10491;SDS011;5293;51.464;-2.566;2024-03-06T07:46:57;10.10;;;5.63;;
10491;SDS011;5293;51.464;-2.566;2024-03-06T07:49:22;12.53;;;6.30;;
10491;SDS011;5293;51.464;-2.566;2024-03-06T07:51:48;15.67;;;6.30;;
10491;SDS011;5293;51.464;-2.566;2024-03-06T07:54:14;8.90;;;6.50;;
10491;SDS011;5293;51.464;-2.566;2024-03-06T07:56:39;12.47;;;6.43;;
10491;SDS011;5293;51.464;-2.566;2024-03-06T07:59:05;14.10;;;7.57;;
10491;SDS011;5293;51.464;-2.566;2024-03-06T08:01:31;13.17;;;7.33;;
10491;SDS011;5293;51.464;-2.566;2024-03-06T08:03:57;18.13;;;8.07;;
10491;SDS011;5293;51.464;-2.566;2024-03-06T08:06:23;13.50;;;7.43;;
10491;SDS011;5293;51.464;-2.566;2024-03-06T08:08:50;17.17;;;8.40;;
10491;SDS011;5293;51.464;-2.566;2024-03-06T08:11:17;12.30;;;7.83;;
10491;SDS011;5293;51.464;-2.566;2024-03-06T08:13:43;19.30;;;8.37;;
10491;SDS011;5293;51.464;-2.566;2024-03-06T08:16:09;15.90;;;8.00;;
10491;SDS011;5293;51.464;-2.566;2024-03-06T08:18:36;15.93;;;8.30;;
10491;SDS011;5293;51.464;-2.566;2024-03-06T08:21:02;22.43;;;8.23;;
10491;SDS011;5293;51.464;-2.566;2024-03-06T08:23:30;14.60;;;7.80;;
10491;SDS011;5293;51.464;-2.566;2024-03-06T08:25:56;13.73;;;7.27;;
10491;SDS011;5293;51.464;-2.566;2024-03-06T08:28:21;13.97;;;7.40;;
10491;SDS011;5293;51.464;-2.566;2024-03-06T08:30:47;15.57;;;6.83;;
10491;SDS011;5293;51.464;-2.566;2024-03-06T08:33:13;8.97;;;6.10;;
10491;SDS011;5293;51.464;-2.566;2024-03-06T08:35:39;8.07;;;6.13;;
10491;SDS011;5293;51.464;-2.566;2024-03-06T08:38:05;11.63;;;6.27;;
10491;SDS011;5293;51.464;-2.566;2024-03-06T08:40:31;13.20;;;6.50;;
10491;SDS011;5293;51.464;-2.566;2024-03-06T08:42:57;6.83;;;5.70;;
10491;SDS011;5293;51.464;-2.566;2024-03-06T08:45:23;14.47;;;6.40;;
10491;SDS011;5293;51.464;-2.566;2024-03-06T08:47:49;12.30;;;5.73;;
10491;SDS011;5293;51.464;-2.566;2024-03-06T08:50:15;10.70;;;5.93;;
10491;SDS011;5293;51.464;-2.566;2024-03-06T08:52:41;9.00;;;5.50;;
10491;SDS011;5293;51.464;-2.566;2024-03-06T08:55:07;9.80;;;6.20;;
10491;SDS011;5293;51.464;-2.566;2024-03-06T08:57:34;10.53;;;6.00;;
10491;SDS011;5293;51.464;-2.566;2024-03-06T09:00:01;10.40;;;6.27;;
10491;SDS011;5293;51.464;-2.566;2024-03-06T09:02:35;9.23;;;5.97;;
10491;SDS011;5293;51.464;-2.566;2024-03-06T09:05:05;10.73;;;5.80;;
10491;SDS011;5293;51.464;-2.566;2024-03-06T09:07:33;12.27;;;6.43;;
10491;SDS011;5293;51.464;-2.566;2024-03-06T09:10:04;11.70;;;5.70;;
10491;SDS011;5293;51.464;-2.566;2024-03-06T09:12:30;16.45;;;7.00;;
10491;SDS011;5293;51.464;-2.566;2024-03-06T09:14:56;11.97;;;6.57;;
10491;SDS011;5293;51.464;-2.566;2024-03-06T09:17:22;12.20;;;6.57;;
10491;SDS011;5293;51.464;-2.566;2024-03-06T09:19:47;12.10;;;6.60;;
10491;SDS011;5293;51.464;-2.566;2024-03-06T09:22:13;13.17;;;6.20;;
10491;SDS011;5293;51.464;-2.566;2024-03-06T09:24:39;13.67;;;7.17;;
10491;SDS011;5293;51.464;-2.566;2024-03-06T09:27:04;17.60;;;7.43;;
10491;SDS011;5293;51.464;-2.566;2024-03-06T09:29:30;10.70;;;7.00;;
10491;SDS011;5293;51.464;-2.566;2024-03-06T09:31:56;11.67;;;6.67;;
10491;SDS011;5293;51.464;-2.566;2024-03-06T09:34:21;14.03;;;7.90;;
10491;SDS011;5293;51.464;-2.566;2024-03-06T09:36:49;12.83;;;7.23;;
10491;SDS011;5293;51.464;-2.566;2024-03-06T09:39:16;12.53;;;7.43;;
10491;SDS011;5293;51.464;-2.566;2024-03-06T09:41:44;12.10;;;7.70;;
10491;SDS011;5293;51.464;-2.566;2024-03-06T09:44:11;13.47;;;8.20;;
10491;SDS011;5293;51.464;-2.566;2024-03-06T09:46:37;19.50;;;9.20;;
10491;SDS011;5293;51.464;-2.566;2024-03-06T09:49:03;16.80;;;9.00;;
10491;SDS011;5293;51.464;-2.566;2024-03-06T09:51:29;11.87;;;7.37;;
10491;SDS011;5293;51.464;-2.566;2024-03-06T09:53:55;15.07;;;8.93;;
10491;SDS011;5293;51.464;-2.566;2024-03-06T09:56:21;13.07;;;8.33;;
10491;SDS011;5293;51.464;-2.566;2024-03-06T09:58:47;12.13;;;8.03;;
10491;SDS011;5293;51.464;-2.566;2024-03-06T10:01:13;16.27;;;8.33;;
10491;SDS011;5293;51.464;-2.566;2024-03-06T10:03:40;14.63;;;7.63;;
10491;SDS011;5293;51.464;-2.566;2024-03-06T10:06:06;16.50;;;8.37;;
10491;SDS011;5293;51.464;-2.566;2024-03-06T10:08:35;15.60;;;8.33;;
10491;SDS011;5293;51.464;-2.566;2024-03-06T10:11:02;14.97;;;7.47;;
10491;SDS011;5293;51.464;-2.566;2024-03-06T10:13:28;12.60;;;7.13;;
10491;SDS011;5293;51.464;-2.566;2024-03-06T10:18:23;16.43;;;7.80;;
10491;SDS011;5293;51.464;-2.566;2024-03-06T10:20:55;14.63;;;7.53;;
10491;SDS011;5293;51.464;-2.566;2024-03-06T10:23:21;15.77;;;7.03;;
10491;SDS011;5293;51.464;-2.566;2024-03-06T10:25:48;16.43;;;7.50;;
10491;SDS011;5293;51.464;-2.566;2024-03-06T10:28:17;11.70;;;6.07;;
10491;SDS011;5293;51.464;-2.566;2024-03-06T10:30:45;14.60;;;6.40;;
10491;SDS011;5293;51.464;-2.566;2024-03-06T10:33:11;14.07;;;6.67;;
10491;SDS011;5293;51.464;-2.566;2024-03-06T10:35:42;13.23;;;6.67;;
10491;SDS011;5293;51.464;-2.566;2024-03-06T10:38:09;14.20;;;7.20;;
10491;SDS011;5293;51.464;-2.566;2024-03-06T10:40:39;16.37;;;5.73;;
10491;SDS011;5293;51.464;-2.566;2024-03-06T10:43:07;17.40;;;6.67;;
10491;SDS011;5293;51.464;-2.566;2024-03-06T10:45:55;13.03;;;5.53;;
10491;SDS011;5293;51.464;-2.566;2024-03-06T10:48:27;11.17;;;5.93;;
10491;SDS011;5293;51.464;-2.566;2024-03-06T10:50:53;12.07;;;5.40;;
10491;SDS011;5293;51.464;-2.566;2024-03-06T10:53:21;14.27;;;5.70;;
10491;SDS011;5293;51.464;-2.566;2024-03-06T10:55:48;10.87;;;5.60;;
10491;SDS011;5293;51.464;-2.566;2024-03-06T10:58:14;14.47;;;5.60;;
10491;SDS011;5293;51.464;-2.566;2024-03-06T11:00:42;14.17;;;6.03;;
10491;SDS011;5293;51.464;-2.566;2024-03-06T11:03:13;10.23;;;5.10;;
10491;SDS011;5293;51.464;-2.566;2024-03-06T11:05:41;7.73;;;4.93;;
10491;SDS011;5293;51.464;-2.566;2024-03-06T11:08:08;10.53;;;4.97;;
10491;SDS011;5293;51.464;-2.566;2024-03-06T11:10:36;12.40;;;5.00;;
10491;SDS011;5293;51.464;-2.566;2024-03-06T11:13:03;9.10;;;5.37;;
10491;SDS011;5293;51.464;-2.566;2024-03-06T11:15:51;15.10;;;5.30;;
10491;SDS011;5293;51.464;-2.566;2024-03-06T11:20:59;21.00;;;6.63;;
10491;SDS011;5293;51.464;-2.566;2024-03-06T11:23:28;12.83;;;5.30;;
10491;SDS011;5293;51.464;-2.566;2024-03-06T11:28:27;10.27;;;5.10;;
10491;SDS011;5293;51.464;-2.566;2024-03-06T11:33:37;10.60;;;4.60;;
10491;SDS011;5293;51.464;-2.566;2024-03-06T11:36:22;15.83;;;5.83;;
10491;SDS011;5293;51.464;-2.566;2024-03-06T11:38:55;15.90;;;6.37;;
10491;SDS011;5293;51.464;-2.566;2024-03-06T11:41:23;11.23;;;4.67;;
10491;SDS011;5293;51.464;-2.566;2024-03-06T11:43:50;7.30;;;4.27;;
10491;SDS011;5293;51.464;-2.566;2024-03-06T11:46:20;12.07;;;4.50;;
10491;SDS011;5293;51.464;-2.566;2024-03-06T11:48:54;13.20;;;4.63;;
10491;SDS011;5293;51.464;-2.566;2024-03-06T11:51:21;13.43;;;4.83;;
10491;SDS011;5293;51.464;-2.566;2024-03-06T11:53:50;11.60;;;4.30;;
10491;SDS011;5293;51.464;-2.566;2024-03-06T11:56:17;13.07;;;4.30;;
10491;SDS011;5293;51.464;-2.566;2024-03-06T11:58:43;9.93;;;3.77;;
10491;SDS011;5293;51.464;-2.566;2024-03-06T12:01:09;9.70;;;3.60;;
10491;SDS011;5293;51.464;-2.566;2024-03-06T12:03:35;10.23;;;3.80;;
10491;SDS011;5293;51.464;-2.566;2024-03-06T12:06:01;19.73;;;6.23;;
10491;SDS011;5293;51.464;-2.566;2024-03-06T12:08:28;11.13;;;3.77;;
10491;SDS011;5293;51.464;-2.566;2024-03-06T12:10:53;10.93;;;3.73;;
10491;SDS011;5293;51.464;-2.566;2024-03-06T12:13:20;10.50;;;3.50;;
10491;SDS011;5293;51.464;-2.566;2024-03-06T12:15:46;8.83;;;3.73;;
10491;SDS011;5293;51.464;-2.566;2024-03-06T12:18:12;15.17;;;3.60;;
10491;SDS011;5293;51.464;-2.566;2024-03-06T12:20:41;11.13;;;4.13;;
10491;SDS011;5293;51.464;-2.566;2024-03-06T12:23:18;14.97;;;4.60;;
10491;SDS011;5293;51.464;-2.566;2024-03-06T12:26:03;10.30;;;3.57;;
10491;SDS011;5293;51.464;-2.566;2024-03-06T12:28:28;9.47;;;3.57;;
10491;SDS011;5293;51.464;-2.566;2024-03-06T12:30:55;10.90;;;3.90;;
10491;SDS011;5293;51.464;-2.566;2024-03-06T12:33:20;11.43;;;3.80;;
10491;SDS011;5293;51.464;-2.566;2024-03-06T12:35:46;8.47;;;4.03;;
10491;SDS011;5293;51.464;-2.566;2024-03-06T12:38:13;10.17;;;3.77;;
10491;SDS011;5293;51.464;-2.566;2024-03-06T12:40:40;13.57;;;3.33;;
10491;SDS011;5293;51.464;-2.566;2024-03-06T12:43:06;11.83;;;3.70;;
10491;SDS011;5293;51.464;-2.566;2024-03-06T12:45:32;9.10;;;3.83;;
10491;SDS011;5293;51.464;-2.566;2024-03-06T12:47:59;13.37;;;4.20;;
10491;SDS011;5293;51.464;-2.566;2024-03-06T12:50:24;8.97;;;3.87;;
10491;SDS011;5293;51.464;-2.566;2024-03-06T12:52:50;14.63;;;4.17;;
10491;SDS011;5293;51.464;-2.566;2024-03-06T12:55:17;10.47;;;3.33;;
10491;SDS011;5293;51.464;-2.566;2024-03-06T12:57:44;5.43;;;2.90;;
10491;SDS011;5293;51.464;-2.566;2024-03-06T13:00:13;13.33;;;3.03;;
10491;SDS011;5293;51.464;-2.566;2024-03-06T13:02:43;14.53;;;3.17;;
10491;SDS011;5293;51.464;-2.566;2024-03-06T13:05:10;9.40;;;2.90;;
10491;SDS011;5293;51.464;-2.566;2024-03-06T13:07:36;14.73;;;3.03;;
10491;SDS011;5293;51.464;-2.566;2024-03-06T13:10:02;6.97;;;2.80;;
10491;SDS011;5293;51.464;-2.566;2024-03-06T13:12:28;10.80;;;3.00;;
10491;SDS011;5293;51.464;-2.566;2024-03-06T13:14:54;12.43;;;3.10;;
10491;SDS011;5293;51.464;-2.566;2024-03-06T13:17:19;12.27;;;3.20;;
10491;SDS011;5293;51.464;-2.566;2024-03-06T13:19:45;10.67;;;3.47;;
10491;SDS011;5293;51.464;-2.566;2024-03-06T13:22:11;8.83;;;3.17;;
10491;SDS011;5293;51.464;-2.566;2024-03-06T13:24:36;8.30;;;2.70;;
10491;SDS011;5293;51.464;-2.566;2024-03-06T13:27:03;7.27;;;2.23;;
10491;SDS011;5293;51.464;-2.566;2024-03-06T13:29:29;11.07;;;2.80;;
10491;SDS011;5293;51.464;-2.566;2024-03-06T13:31:54;9.37;;;2.70;;
10491;SDS011;5293;51.464;-2.566;2024-03-06T13:34:20;13.87;;;2.67;;
10491;SDS011;5293;51.464;-2.566;2024-03-06T13:36:46;12.93;;;2.97;;
10491;SDS011;5293;51.464;-2.566;2024-03-06T13:39:11;8.73;;;2.87;;
10491;SDS011;5293;51.464;-2.566;2024-03-06T13:41:37;6.47;;;2.13;;
10491;SDS011;5293;51.464;-2.566;2024-03-06T13:44:03;8.50;;;2.90;;
10491;SDS011;5293;51.464;-2.566;2024-03-06T13:46:29;9.00;;;2.60;;
10491;SDS011;5293;51.464;-2.566;2024-03-06T13:48:54;11.90;;;3.10;;
10491;SDS011;5293;51.464;-2.566;2024-03-06T13:51:20;6.63;;;2.77;;
10491;SDS011;5293;51.464;-2.566;2024-03-06T13:53:46;8.67;;;2.87;;
10491;SDS011;5293;51.464;-2.566;2024-03-06T13:56:11;7.63;;;2.77;;
10491;SDS011;5293;51.464;-2.566;2024-03-06T13:58:37;11.50;;;3.97;;
10491;SDS011;5293;51.464;-2.566;2024-03-06T14:01:03;9.03;;;3.30;;
10491;SDS011;5293;51.464;-2.566;2024-03-06T14:03:30;16.03;;;3.13;;
10491;SDS011;5293;51.464;-2.566;2024-03-06T14:05:58;9.33;;;2.70;;
10491;SDS011;5293;51.464;-2.566;2024-03-06T14:08:24;9.63;;;3.80;;
10491;SDS011;5293;51.464;-2.566;2024-03-06T14:10:51;6.60;;;2.80;;
10491;SDS011;5293;51.464;-2.566;2024-03-06T14:13:16;8.70;;;3.27;;
10491;SDS011;5293;51.464;-2.566;2024-03-06T14:15:42;6.63;;;3.07;;
10491;SDS011;5293;51.464;-2.566;2024-03-06T14:18:09;14.13;;;2.93;;
10491;SDS011;5293;51.464;-2.566;2024-03-06T14:20:35;7.37;;;2.20;;
10491;SDS011;5293;51.464;-2.566;2024-03-06T14:23:00;9.40;;;3.07;;
10491;SDS011;5293;51.464;-2.566;2024-03-06T14:25:26;8.00;;;2.70;;
10491;SDS011;5293;51.464;-2.566;2024-03-06T14:27:51;8.83;;;2.80;;
10491;SDS011;5293;51.464;-2.566;2024-03-06T14:30:17;11.60;;;2.20;;
10491;SDS011;5293;51.464;-2.566;2024-03-06T14:32:44;7.63;;;2.30;;
10491;SDS011;5293;51.464;-2.566;2024-03-06T14:35:13;4.17;;;2.20;;
10491;SDS011;5293;51.464;-2.566;2024-03-06T14:37:40;8.57;;;2.90;;
10491;SDS011;5293;51.464;-2.566;2024-03-06T14:40:06;6.37;;;2.30;;
10491;SDS011;5293;51.464;-2.566;2024-03-06T14:42:33;11.93;;;2.30;;